Time;durP1;ratioP1;P1;durP2;ratioP2;P2;SDS_P1;SDS_P2;PMS_P1;PMS_P2;Temp;Humidity;BMP_temperature;BMP_pressure;BME280_temperature;BME280_humidity;BME280_pressure;Samples;Min_cycle;Max_cycle;Signal;HPM_P1;HPM_P2
2021/08/26 00:07:52;;;;;;;8.10;3.65;;;17.30;88.90;;;;;;5085617;28;20047;-82
2021/08/26 00:10:19;;;;;;;8.05;3.75;;;17.30;88.70;;;;;;5070906;28;20074;-82
2021/08/26 00:12:45;;;;;;;9.35;3.70;;;17.30;88.80;;;;;;5095441;28;20052;-81
2021/08/26 00:15:11;;;;;;;7.60;3.47;;;17.20;88.70;;;;;;5055439;28;20461;-79
2021/08/26 00:17:36;;;;;;;5.93;3.55;;;17.20;88.70;;;;;;5057327;28;20429;-84
2021/08/26 00:20:06;;;;;;;7.63;3.70;;;17.20;88.80;;;;;;5068632;28;20465;-83
2021/08/26 00:22:32;;;;;;;10.35;4.05;;;17.20;88.90;;;;;;5093472;28;20028;-83
2021/08/26 00:24:57;;;;;;;7.70;4.03;;;17.10;89.00;;;;;;5096018;28;20380;-86
2021/08/26 00:27:24;;;;;;;8.98;3.90;;;17.10;89.10;;;;;;5060690;28;20469;-83
2021/08/26 00:29:50;;;;;;;6.90;3.70;;;17.10;89.10;;;;;;5057662;28;20029;-79
2021/08/26 00:32:16;;;;;;;6.53;4.05;;;17.10;89.20;;;;;;5071973;28;20024;-86
2021/08/26 00:34:42;;;;;;;7.50;3.33;;;17.00;89.40;;;;;;5077837;28;20036;-83
2021/08/26 00:37:07;;;;;;;8.30;3.60;;;17.00;89.50;;;;;;5085318;28;20036;-81
2021/08/26 00:39:33;;;;;;;8.35;3.78;;;17.00;89.60;;;;;;5060426;28;20025;-85
2021/08/26 00:41:58;;;;;;;8.65;3.92;;;17.00;89.70;;;;;;5083981;28;20440;-84
2021/08/26 00:44:24;;;;;;;6.15;3.25;;;16.90;89.80;;;;;;5071084;28;20075;-84
2021/08/26 00:46:50;;;;;;;7.70;3.72;;;16.90;89.80;;;;;;5077617;28;20020;-84
2021/08/26 00:49:16;;;;;;;8.13;3.42;;;16.90;90.00;;;;;;5069133;28;20040;-83
2021/08/26 00:51:43;;;;;;;7.30;3.70;;;16.90;90.00;;;;;;5079659;28;20016;-83
2021/08/26 00:54:09;;;;;;;4.75;3.15;;;16.80;90.00;;;;;;5089279;28;20044;-80
2021/08/26 00:56:36;;;;;;;7.82;4.03;;;16.80;90.10;;;;;;5063181;28;20032;-84
2021/08/26 00:59:04;;;;;;;7.30;3.53;;;16.80;90.10;;;;;;5065250;28;20839;-82
2021/08/26 01:02:02;;;;;;;8.70;4.20;;;16.70;90.20;;;;;;5066155;28;20039;-83
2021/08/26 01:04:48;;;;;;;7.07;3.60;;;16.70;90.30;;;;;;5069654;28;20033;-84
2021/08/26 01:07:36;;;;;;;8.10;3.72;;;16.70;90.30;;;;;;5068511;28;20444;-82
2021/08/26 01:10:05;;;;;;;7.22;3.38;;;16.70;90.50;;;;;;5059491;28;20385;-83
2021/08/26 01:12:34;;;;;;;7.22;4.35;;;16.60;90.40;;;;;;5072399;28;20412;-83
2021/08/26 01:15:00;;;;;;;6.78;4.05;;;16.60;90.50;;;;;;5094704;28;20551;-84
2021/08/26 01:17:31;;;;;;;6.95;3.28;;;16.60;90.60;;;;;;5065561;28;20025;-84
2021/08/26 01:19:59;;;;;;;7.45;4.40;;;16.50;90.70;;;;;;5094705;28;20046;-83
2021/08/26 01:22:26;;;;;;;7.75;4.07;;;16.50;90.70;;;;;;5077273;28;20411;-84
2021/08/26 01:24:58;;;;;;;9.18;4.30;;;16.50;90.80;;;;;;5077171;28;20082;-84
2021/08/26 01:27:37;;;;;;;6.18;3.55;;;16.50;90.80;;;;;;5076606;28;20112;-83
2021/08/26 01:30:05;;;;;;;6.60;3.90;;;16.50;91.00;;;;;;5083115;28;20028;-83
2021/08/26 01:32:31;;;;;;;8.35;3.75;;;16.40;91.00;;;;;;5056543;28;20104;-82
2021/08/26 01:34:57;;;;;;;8.95;3.78;;;16.40;91.00;;;;;;5056859;28;20033;-82
2021/08/26 01:37:24;;;;;;;8.55;3.88;;;16.40;91.10;;;;;;5057443;28;20085;-82
2021/08/26 01:39:54;;;;;;;8.13;4.43;;;16.40;91.20;;;;;;5056869;28;20025;-84
2021/08/26 01:42:22;;;;;;;7.38;3.72;;;16.30;91.20;;;;;;5074252;28;20059;-82
2021/08/26 01:44:47;;;;;;;7.22;3.80;;;16.30;91.40;;;;;;5074594;28;20145;-82
2021/08/26 01:47:16;;;;;;;7.05;3.88;;;16.30;91.50;;;;;;5063759;28;20028;-82
2021/08/26 01:49:45;;;;;;;7.45;4.13;;;16.30;91.60;;;;;;5076833;28;20028;-82
2021/08/26 01:52:15;;;;;;;9.23;4.70;;;16.20;91.70;;;;;;5094488;28;20062;-81
2021/08/26 01:54:50;;;;;;;7.90;3.60;;;16.20;91.80;;;;;;5076866;28;20036;-82
2021/08/26 01:57:17;;;;;;;8.23;4.60;;;16.20;91.90;;;;;;5071946;28;20025;-81
2021/08/26 01:59:44;;;;;;;7.85;4.35;;;16.20;91.90;;;;;;5056518;28;20024;-83
2021/08/26 02:02:09;;;;;;;9.80;3.92;;;16.20;92.00;;;;;;5056265;28;20036;-82
2021/08/26 02:04:35;;;;;;;10.80;4.82;;;16.20;92.00;;;;;;5055520;28;20028;-84
2021/08/26 02:07:00;;;;;;;7.70;4.50;;;16.20;92.10;;;;;;5074049;28;20094;-83
2021/08/26 02:09:26;;;;;;;6.65;4.05;;;16.20;92.10;;;;;;5091714;28;20099;-83
2021/08/26 02:11:52;;;;;;;6.65;4.07;;;16.20;92.20;;;;;;5093011;28;20123;-82
2021/08/26 02:14:17;;;;;;;8.23;4.30;;;16.20;92.30;;;;;;5075531;28;20497;-82
2021/08/26 02:16:43;;;;;;;8.85;4.55;;;16.20;92.30;;;;;;5076518;28;20027;-82
2021/08/26 02:19:08;;;;;;;7.55;4.22;;;16.20;92.40;;;;;;5075589;28;20479;-83
2021/08/26 02:21:34;;;;;;;8.88;4.30;;;16.20;92.40;;;;;;5076146;28;20046;-82
2021/08/26 02:24:00;;;;;;;9.18;4.32;;;16.20;92.30;;;;;;5094398;28;20028;-82
2021/08/26 02:26:25;;;;;;;9.43;4.60;;;16.30;92.30;;;;;;5076219;28;20032;-82
2021/08/26 02:28:51;;;;;;;7.78;4.03;;;16.20;92.30;;;;;;5064094;28;20473;-83
2021/08/26 02:31:16;;;;;;;13.90;4.78;;;16.20;92.40;;;;;;5059574;28;20466;-82
2021/08/26 02:33:42;;;;;;;7.43;4.80;;;16.20;92.50;;;;;;5060386;28;20041;-83
2021/08/26 02:36:08;;;;;;;8.43;4.25;;;16.20;92.50;;;;;;5077568;28;20055;-83
2021/08/26 02:38:33;;;;;;;7.15;4.32;;;16.20;92.60;;;;;;5060087;28;20029;-83
2021/08/26 02:40:59;;;;;;;8.43;4.18;;;16.20;92.60;;;;;;5077808;28;20025;-83
2021/08/26 02:43:24;;;;;;;8.90;4.50;;;16.10;92.80;;;;;;5059714;28;20065;-83
2021/08/26 02:45:50;;;;;;;7.68;4.30;;;16.20;92.80;;;;;;5060338;28;20025;-83
2021/08/26 02:48:16;;;;;;;7.60;4.28;;;16.20;92.80;;;;;;5059839;28;20423;-82
2021/08/26 02:50:41;;;;;;;7.95;4.45;;;16.20;92.70;;;;;;5077925;28;20158;-82
2021/08/26 02:53:07;;;;;;;9.52;4.43;;;16.20;92.60;;;;;;5059966;28;20028;-82
2021/08/26 02:55:33;;;;;;;10.27;4.90;;;16.20;92.70;;;;;;5059604;28;20850;-82
2021/08/26 02:57:58;;;;;;;10.80;4.72;;;16.20;92.80;;;;;;5067468;28;20365;-82
2021/08/26 03:00:24;;;;;;;7.90;4.50;;;16.20;92.80;;;;;;5079373;28;20020;-82
2021/08/26 03:02:49;;;;;;;8.70;4.90;;;16.30;92.90;;;;;;5079887;28;20054;-83
2021/08/26 03:05:15;;;;;;;8.65;4.57;;;16.30;92.80;;;;;;5079164;28;20032;-82
2021/08/26 03:07:41;;;;;;;8.00;4.68;;;16.30;92.80;;;;;;5078284;28;20028;-83
2021/08/26 03:10:07;;;;;;;9.60;4.63;;;16.20;92.80;;;;;;5059673;28;20389;-83
2021/08/26 03:12:32;;;;;;;9.18;4.68;;;16.30;92.80;;;;;;5059012;28;20024;-83
2021/08/26 03:14:58;;;;;;;9.75;4.57;;;16.20;92.70;;;;;;5059657;28;20502;-84
2021/08/26 03:17:24;;;;;;;9.93;4.97;;;16.20;92.70;;;;;;5059005;28;20025;-83
2021/08/26 03:19:49;;;;;;;11.27;4.78;;;16.20;92.80;;;;;;5077236;28;20384;-83
2021/08/26 03:22:15;;;;;;;8.35;4.93;;;16.20;92.80;;;;;;5079028;28;20460;-82
2021/08/26 03:24:40;;;;;;;10.35;4.72;;;16.20;92.90;;;;;;5096459;28;20032;-81
2021/08/26 03:27:06;;;;;;;8.70;4.72;;;16.20;92.80;;;;;;5097302;28;20028;-82
2021/08/26 03:29:32;;;;;;;8.38;4.60;;;16.20;92.90;;;;;;5077185;28;20028;-82
2021/08/26 03:31:57;;;;;;;9.02;5.13;;;16.20;93.00;;;;;;5079692;28;20559;-84
2021/08/26 03:34:23;;;;;;;7.82;4.80;;;16.10;93.00;;;;;;5096737;28;20483;-83
2021/08/26 03:36:49;;;;;;;8.15;4.55;;;16.10;93.10;;;;;;5077719;28;20473;-83
2021/08/26 03:39:15;;;;;;;6.22;4.18;;;16.10;93.20;;;;;;5058835;28;20032;-84
2021/08/26 03:41:40;;;;;;;10.48;4.95;;;16.10;93.30;;;;;;5077142;28;20108;-84
2021/08/26 03:44:06;;;;;;;8.30;4.93;;;16.00;93.30;;;;;;5076628;28;20037;-82
2021/08/26 03:46:31;;;;;;;7.78;4.55;;;16.00;93.40;;;;;;5076069;28;20035;-82
2021/08/26 03:48:57;;;;;;;8.00;4.75;;;16.00;93.40;;;;;;5058474;28;20026;-82
2021/08/26 03:51:23;;;;;;;9.30;4.75;;;16.00;93.50;;;;;;5058430;28;20049;-81
2021/08/26 03:53:48;;;;;;;8.25;4.82;;;16.00;93.50;;;;;;5058685;28;20373;-83
2021/08/26 03:56:14;;;;;;;10.25;5.00;;;16.00;93.60;;;;;;5058597;28;20036;-84
2021/08/26 03:58:40;;;;;;;13.85;4.70;;;15.90;93.60;;;;;;5057926;28;20112;-83
2021/08/26 04:01:06;;;;;;;10.07;5.15;;;15.90;93.70;;;;;;5058133;28;20047;-83
2021/08/26 04:03:32;;;;;;;8.50;5.00;;;15.90;93.70;;;;;;5069630;28;20029;-82
2021/08/26 04:05:58;;;;;;;9.40;4.97;;;15.90;93.70;;;;;;5038451;28;20101;-82
2021/08/26 04:08:24;;;;;;;11.68;5.05;;;15.80;93.80;;;;;;5038201;28;20025;-81
2021/08/26 04:10:50;;;;;;;7.55;4.38;;;15.80;93.90;;;;;;5038453;28;20067;-82
2021/08/26 04:13:15;;;;;;;11.63;4.93;;;15.80;94.00;;;;;;5088287;28;20086;-82
2021/08/26 04:15:41;;;;;;;9.00;5.07;;;15.80;94.00;;;;;;5078151;28;20115;-81
2021/08/26 04:18:07;;;;;;;9.30;5.10;;;15.80;94.10;;;;;;5078493;28;20020;-82
2021/08/26 04:20:32;;;;;;;9.85;4.68;;;15.80;94.10;;;;;;5095630;28;20024;-82
2021/08/26 04:22:58;;;;;;;11.70;4.93;;;15.70;94.20;;;;;;5073676;28;20515;-82
2021/08/26 04:25:24;;;;;;;9.18;5.10;;;15.80;94.20;;;;;;5057667;28;20466;-82
2021/08/26 04:27:49;;;;;;;8.73;5.40;;;15.80;94.30;;;;;;5068269;28;20111;-82
2021/08/26 04:30:15;;;;;;;8.25;4.90;;;15.80;94.30;;;;;;5096152;28;20475;-81
2021/08/26 04:32:41;;;;;;;8.40;5.32;;;15.80;94.20;;;;;;5086839;28;20016;-82
2021/08/26 04:35:07;;;;;;;10.68;5.50;;;15.80;94.20;;;;;;5058404;28;20039;-82
2021/08/26 04:37:33;;;;;;;11.57;5.70;;;15.80;94.30;;;;;;5057117;28;20419;-82
2021/08/26 04:39:58;;;;;;;9.13;5.18;;;15.70;94.40;;;;;;5075590;28;20133;-82
2021/08/26 04:42:24;;;;;;;9.13;5.00;;;15.70;94.50;;;;;;5057622;28;20463;-81
2021/08/26 04:44:49;;;;;;;9.27;5.43;;;15.70;94.60;;;;;;5064279;28;20032;-82
2021/08/26 04:47:15;;;;;;;7.70;4.90;;;15.70;94.70;;;;;;5057443;28;20408;-82
2021/08/26 04:49:41;;;;;;;8.77;4.97;;;15.70;94.70;;;;;;5057417;28;20021;-82
2021/08/26 04:52:06;;;;;;;9.48;5.15;;;15.60;95.20;;;;;;5058278;28;20020;-82
2021/08/26 04:54:32;;;;;;;11.95;6.10;;;15.70;94.90;;;;;;5075337;28;20024;-82
2021/08/26 04:56:57;;;;;;;11.35;5.60;;;15.60;95.00;;;;;;5057815;28;20043;-82
2021/08/26 04:59:23;;;;;;;8.55;5.28;;;15.60;95.10;;;;;;5057595;28;20035;-82
2021/08/26 05:01:49;;;;;;;11.93;5.55;;;15.60;95.10;;;;;;5057350;28;20380;-82
2021/08/26 05:04:20;;;;;;;11.73;5.63;;;15.70;95.00;;;;;;5058529;28;20388;-82
2021/08/26 05:06:46;;;;;;;10.10;5.63;;;15.70;95.00;;;;;;5065502;28;20032;-82
2021/08/26 05:09:12;;;;;;;9.50;4.93;;;15.80;95.00;;;;;;5058171;28;20056;-82
2021/08/26 05:11:37;;;;;;;10.38;5.25;;;15.80;95.00;;;;;;5074659;28;20107;-82
2021/08/26 05:14:03;;;;;;;11.15;5.18;;;15.80;95.10;;;;;;5074150;28;20485;-82
2021/08/26 05:16:28;;;;;;;10.48;5.63;;;15.70;95.20;;;;;;5056001;28;20025;-82
2021/08/26 05:18:54;;;;;;;9.13;4.93;;;15.70;95.30;;;;;;5070041;28;20426;-82
2021/08/26 05:21:20;;;;;;;13.05;5.50;;;15.70;95.40;;;;;;5094950;28;20047;-83
2021/08/26 05:23:45;;;;;;;11.57;6.15;;;15.80;95.20;;;;;;5058573;28;20147;-83
2021/08/26 05:26:12;;;;;;;10.85;5.88;;;15.80;95.30;;;;;;5057013;28;20033;-83
2021/08/26 05:28:38;;;;;;;9.85;5.70;;;15.90;95.30;;;;;;5071400;28;20059;-83
2021/08/26 05:31:04;;;;;;;11.95;5.47;;;16.00;95.20;;;;;;5067902;28;20052;-83
2021/08/26 05:33:29;;;;;;;9.50;5.60;;;16.00;95.10;;;;;;5059301;28;20088;-83
2021/08/26 05:35:55;;;;;;;10.95;5.35;;;16.00;95.00;;;;;;5074760;28;20020;-83
2021/08/26 05:38:20;;;;;;;10.38;5.40;;;16.00;95.00;;;;;;5073327;28;20449;-83
2021/08/26 05:40:46;;;;;;;10.45;5.78;;;16.00;95.00;;;;;;5076195;28;20510;-84
2021/08/26 05:43:11;;;;;;;10.18;5.20;;;16.10;94.90;;;;;;5093456;28;20032;-84
2021/08/26 05:45:37;;;;;;;10.07;5.10;;;16.10;94.80;;;;;;5074408;28;20508;-82
2021/08/26 05:48:03;;;;;;;10.43;5.70;;;16.10;94.80;;;;;;5056366;28;20461;-81
2021/08/26 05:50:29;;;;;;;10.25;5.53;;;16.10;94.70;;;;;;5077015;28;20069;-81
2021/08/26 05:52:54;;;;;;;12.80;5.50;;;16.10;94.70;;;;;;5056985;28;20488;-83
2021/08/26 05:55:20;;;;;;;12.63;5.80;;;16.10;94.70;;;;;;5060489;28;20119;-81
2021/08/26 05:57:46;;;;;;;12.05;5.40;;;16.10;94.70;;;;;;5055814;28;20020;-82
2021/08/26 06:00:12;;;;;;;7.93;4.90;;;16.20;94.60;;;;;;5056537;28;20090;-82
2021/08/26 06:02:39;;;;;;;9.75;4.88;;;16.20;94.50;;;;;;5080305;28;20044;-83
2021/08/26 06:05:05;;;;;;;8.63;4.78;;;16.20;94.30;;;;;;5093970;28;20058;-84
2021/08/26 06:07:30;;;;;;;12.68;4.95;;;16.20;94.20;;;;;;5093781;28;20024;-83
2021/08/26 06:09:56;;;;;;;7.35;4.88;;;16.20;94.20;;;;;;5093950;28;20024;-83
2021/08/26 06:12:22;;;;;;;10.75;5.32;;;16.20;94.10;;;;;;5094086;28;20032;-82
2021/08/26 06:14:48;;;;;;;9.20;4.75;;;16.20;94.10;;;;;;5076174;28;20078;-83
2021/08/26 06:17:14;;;;;;;12.93;6.18;;;16.20;94.10;;;;;;5076875;28;20094;-83
2021/08/26 06:19:40;;;;;;;12.35;4.97;;;16.20;94.10;;;;;;5093496;28;20540;-83
2021/08/26 06:22:06;;;;;;;10.82;5.10;;;16.20;94.10;;;;;;5076118;28;20016;-82
2021/08/26 06:24:31;;;;;;;10.15;5.05;;;16.20;94.30;;;;;;5092650;28;20028;-85
2021/08/26 06:27:01;;;;;;;7.57;4.85;;;16.10;94.60;;;;;;5075316;28;20025;-84
2021/08/26 06:29:27;;;;;;;12.95;5.20;;;16.20;94.40;;;;;;5073774;28;20024;-83
2021/08/26 06:31:52;;;;;;;8.85;4.70;;;16.20;94.30;;;;;;5073750;28;20021;-85
2021/08/26 06:34:18;;;;;;;9.27;4.47;;;16.20;94.20;;;;;;5073113;28;20389;-84
2021/08/26 06:36:44;;;;;;;10.20;4.72;;;16.20;94.40;;;;;;5081747;28;20121;-84
2021/08/26 06:39:09;;;;;;;9.23;4.20;;;16.20;94.20;;;;;;5076251;28;20028;-84
2021/08/26 06:41:35;;;;;;;10.35;4.55;;;16.20;94.30;;;;;;5070911;28;20095;-83
2021/08/26 06:44:01;;;;;;;14.85;5.18;;;16.20;94.30;;;;;;5062183;28;20051;-84
2021/08/26 06:46:26;;;;;;;7.80;4.57;;;16.10;94.40;;;;;;5070398;28;20024;-84
2021/08/26 06:48:54;;;;;;;10.57;4.53;;;16.10;94.40;;;;;;5066988;28;20052;-84
2021/08/26 06:51:20;;;;;;;8.30;4.53;;;16.20;94.40;;;;;;5061152;28;20024;-83
2021/08/26 06:53:46;;;;;;;9.70;4.32;;;16.10;94.40;;;;;;5072123;28;20036;-83
2021/08/26 06:56:12;;;;;;;8.23;4.13;;;16.10;94.50;;;;;;5074802;28;20052;-82
2021/08/26 06:58:38;;;;;;;9.85;4.85;;;16.10;94.50;;;;;;5055787;28;20132;-83
2021/08/26 07:01:04;;;;;;;8.10;4.43;;;16.20;94.50;;;;;;5055405;28;20123;-85
2021/08/26 07:03:30;;;;;;;8.25;4.47;;;16.10;94.60;;;;;;5054917;28;20086;-84
2021/08/26 07:05:56;;;;;;;8.63;5.03;;;16.20;94.80;;;;;;5072422;28;20123;-84
2021/08/26 07:08:21;;;;;;;13.10;4.75;;;16.10;95.00;;;;;;5055589;28;20113;-85
2021/08/26 07:10:47;;;;;;;9.75;4.90;;;16.20;95.00;;;;;;5055124;28;20461;-84
2021/08/26 07:13:13;;;;;;;7.30;4.78;;;16.20;94.90;;;;;;5072043;28;20094;-84
2021/08/26 07:15:38;;;;;;;10.32;5.55;;;16.20;94.80;;;;;;5054249;28;20490;-83
2021/08/26 07:18:06;;;;;;;9.93;4.93;;;16.20;94.70;;;;;;5058525;28;20104;-84
2021/08/26 07:20:31;;;;;;;8.70;4.85;;;16.20;94.80;;;;;;5059146;28;20048;-83
2021/08/26 07:22:57;;;;;;;8.45;4.85;;;16.20;94.90;;;;;;5073691;28;20059;-83
2021/08/26 07:25:23;;;;;;;8.52;5.38;;;16.20;94.90;;;;;;5081935;28;20029;-84
2021/08/26 07:27:48;;;;;;;8.77;4.97;;;16.20;95.10;;;;;;5068471;28;20112;-84
2021/08/26 07:30:15;;;;;;;9.93;5.10;;;16.20;95.10;;;;;;5080673;28;20020;-83
2021/08/26 07:32:40;;;;;;;10.10;4.97;;;16.10;95.00;;;;;;5065490;28;20035;-84
2021/08/26 07:35:06;;;;;;;7.85;5.05;;;16.10;95.20;;;;;;5058561;28;20029;-84
2021/08/26 07:37:32;;;;;;;7.13;4.75;;;16.10;95.30;;;;;;5058559;28;20049;-83
2021/08/26 07:39:58;;;;;;;8.73;4.65;;;16.10;95.20;;;;;;5072365;28;20024;-84
2021/08/26 07:42:23;;;;;;;10.18;5.50;;;16.10;95.40;;;;;;5058495;28;20446;-84
2021/08/26 07:44:49;;;;;;;7.70;5.28;;;16.00;95.40;;;;;;5075723;28;20461;-84
2021/08/26 07:47:15;;;;;;;9.05;5.22;;;16.10;95.70;;;;;;5081951;28;20028;-85
2021/08/26 07:49:40;;;;;;;9.20;5.55;;;16.10;95.50;;;;;;5076320;28;20024;-83
2021/08/26 07:52:06;;;;;;;13.65;5.20;;;16.10;95.60;;;;;;5069705;28;20024;-83
2021/08/26 07:54:32;;;;;;;9.85;5.47;;;16.10;95.70;;;;;;5078784;28;20036;-81
2021/08/26 07:56:58;;;;;;;11.23;5.35;;;16.10;96.00;;;;;;5064950;28;20028;-81
2021/08/26 07:59:24;;;;;;;9.57;5.00;;;16.10;96.20;;;;;;5095579;28;20024;-83
2021/08/26 08:01:50;;;;;;;8.73;5.28;;;16.10;96.10;;;;;;5081516;28;20025;-83
2021/08/26 08:04:15;;;;;;;9.43;5.38;;;16.10;96.30;;;;;;5076160;28;20450;-82
2021/08/26 08:06:41;;;;;;;7.85;4.80;;;16.10;96.20;;;;;;5080989;28;20029;-81
2021/08/26 08:09:07;;;;;;;9.90;5.53;;;16.10;96.10;;;;;;5066821;28;20021;-84
2021/08/26 08:11:33;;;;;;;8.43;4.95;;;16.10;96.30;;;;;;5084059;28;20450;-83
2021/08/26 08:14:00;;;;;;;9.25;5.10;;;16.10;96.30;;;;;;5073842;28;20055;-80
2021/08/26 08:16:25;;;;;;;7.22;4.90;;;16.00;96.20;;;;;;5068594;28;20430;-79
2021/08/26 08:18:51;;;;;;;9.13;5.30;;;16.10;96.30;;;;;;5073114;28;20021;-80
2021/08/26 08:21:16;;;;;;;6.75;4.78;;;16.00;96.40;;;;;;5070075;28;20466;-81
2021/08/26 08:23:43;;;;;;;8.05;5.05;;;16.10;96.40;;;;;;5056789;28;20093;-80
2021/08/26 08:26:11;;;;;;;11.38;5.43;;;16.00;96.40;;;;;;5065995;28;20075;-80
2021/08/26 08:28:38;;;;;;;7.65;4.85;;;16.10;96.60;;;;;;5054266;28;20016;-80
2021/08/26 08:31:05;;;;;;;7.20;4.65;;;16.10;96.40;;;;;;5072351;28;20090;-81
2021/08/26 14:17:22;;;;;;;4.55;1.80;;;21.20;80.10;;;;;;5136915;27;20389;-82
2021/08/26 14:19:52;;;;;;;3.58;1.88;;;21.00;81.10;;;;;;5111734;28;20484;-81
2021/08/26 14:22:19;;;;;;;4.18;2.08;;;20.60;80.90;;;;;;5103881;28;20086;-81
2021/08/26 14:24:45;;;;;;;3.47;1.77;;;20.60;82.20;;;;;;5108500;28;20019;-81
2021/08/26 14:27:13;;;;;;;2.80;1.70;;;20.70;82.00;;;;;;5112493;28;20119;-80
2021/08/26 14:29:39;;;;;;;1.90;1.50;;;20.90;82.10;;;;;;5094852;28;20052;-79
2021/08/26 14:32:05;;;;;;;3.53;1.75;;;21.00;81.60;;;;;;5101447;28;20069;-80
2021/08/26 14:34:31;;;;;;;3.95;1.73;;;21.00;80.60;;;;;;5096006;28;20020;-81
2021/08/26 14:36:57;;;;;;;4.40;1.70;;;21.10;80.50;;;;;;5093242;28;20057;-80
2021/08/26 14:39:23;;;;;;;3.08;1.20;;;21.20;77.40;;;;;;5110629;28;20028;-81
2021/08/26 14:41:48;;;;;;;3.65;0.98;;;21.20;73.10;;;;;;5092126;28;20035;-79
2021/08/26 14:44:14;;;;;;;11.02;1.75;;;21.30;66.50;;;;;;5092932;28;20035;-79
2021/08/26 14:46:40;;;;;;;4.75;1.10;;;21.40;67.20;;;;;;5121669;28;20031;-79
2021/08/26 14:49:06;;;;;;;1.08;0.80;;;21.60;65.90;;;;;;5108269;28;20456;-80
2021/08/26 14:51:33;;;;;;;2.28;0.73;;;21.70;64.00;;;;;;5125858;28;20020;-80
2021/08/26 14:53:59;;;;;;;2.53;0.60;;;21.70;61.40;;;;;;5109683;28;20264;-78
2021/08/26 14:56:25;;;;;;;1.80;0.85;;;21.80;60.80;;;;;;5114725;28;20066;-82
2021/08/26 14:58:53;;;;;;;1.23;0.95;;;21.80;60.10;;;;;;5111111;28;20039;-81
2021/08/26 15:01:21;;;;;;;1.77;0.90;;;21.90;59.50;;;;;;5130105;28;20019;-79
2021/08/26 15:03:47;;;;;;;1.80;1.10;;;21.90;57.70;;;;;;5091773;28;20111;-79
2021/08/26 15:06:14;;;;;;;1.45;1.00;;;21.90;57.30;;;;;;5099440;28;20429;-82
2021/08/26 15:08:40;;;;;;;1.58;0.70;;;22.00;56.70;;;;;;5111729;28;20051;-80
2021/08/26 15:11:06;;;;;;;2.03;0.80;;;22.10;56.60;;;;;;5097189;28;20461;-80
2021/08/26 15:13:31;;;;;;;2.22;0.90;;;22.10;56.60;;;;;;5108076;28;20115;-80
2021/08/26 15:15:57;;;;;;;1.88;0.80;;;21.90;57.40;;;;;;5090911;28;20600;-80
2021/08/26 15:18:25;;;;;;;1.90;0.70;;;21.70;58.30;;;;;;5108737;28;20028;-81
2021/08/26 15:20:51;;;;;;;1.05;0.50;;;21.50;58.90;;;;;;5103360;28;20027;-82
2021/08/26 15:23:17;;;;;;;2.40;0.75;;;21.50;57.80;;;;;;5104025;28;20038;-82
2021/08/26 15:25:42;;;;;;;1.25;0.60;;;21.50;57.80;;;;;;5099082;28;20032;-81
2021/08/26 15:28:08;;;;;;;1.13;0.63;;;21.50;57.60;;;;;;5087772;28;20023;-82
2021/08/26 15:30:34;;;;;;;1.95;0.85;;;21.40;56.60;;;;;;5098473;28;20031;-82
2021/08/26 15:33:00;;;;;;;1.58;0.80;;;21.30;57.40;;;;;;5097565;28;20090;-79
2021/08/26 15:35:25;;;;;;;1.63;0.80;;;21.30;58.10;;;;;;5096897;28;20042;-81
2021/08/26 15:37:51;;;;;;;0.82;0.70;;;21.30;57.60;;;;;;5092360;28;20039;-81
2021/08/26 15:40:18;;;;;;;1.90;0.85;;;21.40;58.30;;;;;;5087523;28;20024;-79
2021/08/26 15:42:44;;;;;;;0.73;0.55;;;21.40;58.10;;;;;;5115494;28;20107;-80
2021/08/26 15:45:11;;;;;;;3.33;0.65;;;21.30;58.60;;;;;;5116263;28;20051;-78
2021/08/26 15:47:38;;;;;;;1.67;0.88;;;21.40;58.70;;;;;;5080463;28;20106;-78
2021/08/26 15:50:05;;;;;;;2.17;0.77;;;21.30;59.10;;;;;;5076739;28;20048;-82
2021/08/26 15:52:32;;;;;;;1.05;0.50;;;21.30;58.30;;;;;;5093797;28;20079;-81
2021/08/26 15:55:06;;;;;;;2.90;1.00;;;21.20;59.00;;;;;;5088647;28;20028;-81
2021/08/26 15:57:55;;;;;;;1.88;0.70;;;21.10;59.60;;;;;;5098401;28;20117;-80
2021/08/26 16:00:35;;;;;;;1.23;0.80;;;21.10;59.60;;;;;;5093811;28;20115;-83
2021/08/26 16:03:00;;;;;;;1.65;0.82;;;21.20;60.10;;;;;;5090467;28;20059;-83
2021/08/26 16:05:26;;;;;;;1.00;0.63;;;21.30;60.10;;;;;;5081009;28;20486;-77
2021/08/26 16:07:52;;;;;;;1.27;0.73;;;21.30;60.50;;;;;;5093714;28;20089;-77
2021/08/26 16:10:17;;;;;;;1.05;0.75;;;21.30;60.40;;;;;;5084201;28;20414;-81
2021/08/26 16:12:48;;;;;;;0.90;0.57;;;21.30;59.90;;;;;;5110841;28;20452;-80
2021/08/26 16:15:18;;;;;;;1.35;1.00;;;21.40;59.90;;;;;;5111804;28;20027;-80
2021/08/26 16:17:45;;;;;;;2.58;0.60;;;21.40;58.40;;;;;;5079764;28;20031;-79
2021/08/26 16:20:12;;;;;;;3.45;0.90;;;21.40;59.40;;;;;;5083772;28;20093;-80
2021/08/26 16:22:38;;;;;;;1.80;0.90;;;21.30;59.20;;;;;;5104603;28;20065;-80
2021/08/26 16:25:04;;;;;;;1.67;0.80;;;21.30;58.50;;;;;;5082055;28;20103;-83
2021/08/26 16:27:30;;;;;;;1.35;0.90;;;21.20;59.50;;;;;;5087663;28;20034;-81
2021/08/26 16:29:56;;;;;;;2.30;1.10;;;21.10;59.90;;;;;;5092383;28;20024;-82
2021/08/26 16:32:21;;;;;;;1.88;0.80;;;21.00;61.20;;;;;;5086581;28;20123;-82
2021/08/26 16:34:47;;;;;;;3.38;1.10;;;20.90;61.70;;;;;;5096368;28;20055;-81
2021/08/26 16:37:13;;;;;;;1.77;0.85;;;20.90;62.40;;;;;;5081447;28;20074;-82
2021/08/26 16:39:39;;;;;;;2.17;1.40;;;20.80;62.70;;;;;;5091796;28;20032;-81
2021/08/26 16:42:05;;;;;;;2.42;1.63;;;20.80;63.20;;;;;;5083015;28;20046;-82
2021/08/26 16:44:31;;;;;;;2.03;1.25;;;20.70;63.50;;;;;;5087785;28;20477;-81
2021/08/26 16:46:56;;;;;;;1.02;0.93;;;20.70;63.60;;;;;;5108240;28;20072;-81
2021/08/26 16:49:22;;;;;;;1.85;1.10;;;20.60;63.20;;;;;;5080602;28;20024;-81
2021/08/26 16:51:48;;;;;;;1.98;1.10;;;20.50;63.80;;;;;;5076364;28;20456;-80
2021/08/26 16:54:14;;;;;;;1.85;1.17;;;20.50;64.50;;;;;;5083148;28;20364;-80
2021/08/26 16:56:41;;;;;;;3.38;1.20;;;20.40;64.40;;;;;;5087246;28;20039;-79
2021/08/26 16:59:06;;;;;;;2.05;0.93;;;20.40;65.10;;;;;;5095734;28;20027;-79
2021/08/26 17:01:32;;;;;;;2.55;1.35;;;20.30;65.10;;;;;;5086063;28;20024;-82
2021/08/26 17:03:58;;;;;;;2.03;1.20;;;20.30;65.70;;;;;;5095028;28;20066;-84
2021/08/26 17:06:24;;;;;;;2.67;1.30;;;20.20;66.00;;;;;;5077030;28;20143;-81
2021/08/26 17:08:49;;;;;;;3.08;1.23;;;20.20;65.70;;;;;;5095051;28;20446;-81
2021/08/26 17:11:15;;;;;;;4.20;1.30;;;20.10;66.10;;;;;;5095484;28;20028;-80
2021/08/26 17:13:42;;;;;;;1.58;1.10;;;20.00;66.40;;;;;;5088827;28;20020;-80
2021/08/26 17:16:09;;;;;;;4.93;1.30;;;20.00;66.80;;;;;;5092336;28;20052;-80
2021/08/26 17:18:35;;;;;;;2.50;1.50;;;19.90;67.10;;;;;;5081333;28;20043;-80
2021/08/26 17:21:03;;;;;;;3.08;1.10;;;19.80;67.50;;;;;;5099244;28;20020;-80
2021/08/26 17:23:29;;;;;;;2.53;1.30;;;19.80;67.70;;;;;;5083157;28;20069;-79
2021/08/26 17:25:54;;;;;;;1.88;1.00;;;19.70;68.40;;;;;;5077370;28;20040;-78
2021/08/26 17:28:23;;;;;;;4.20;1.10;;;19.70;69.20;;;;;;5088921;28;20028;-81
2021/08/26 17:30:48;;;;;;;1.85;1.10;;;19.60;69.70;;;;;;5080796;28;20036;-80
2021/08/26 17:33:14;;;;;;;3.20;1.27;;;19.60;70.10;;;;;;5080914;28;20415;-81
2021/08/26 17:35:39;;;;;;;2.92;1.27;;;19.50;70.40;;;;;;5093051;28;20461;-79
2021/08/26 17:38:05;;;;;;;2.17;1.40;;;19.60;70.70;;;;;;5081206;28;20444;-80
2021/08/26 17:40:32;;;;;;;3.42;1.58;;;19.60;70.40;;;;;;5077074;28;20411;-79
2021/08/26 17:42:58;;;;;;;1.50;1.00;;;19.50;70.40;;;;;;5088139;28;20051;-81
2021/08/26 17:45:23;;;;;;;3.20;1.30;;;19.40;70.60;;;;;;5095497;28;20132;-81
2021/08/26 17:47:49;;;;;;;2.00;1.30;;;19.40;70.50;;;;;;5075901;28;20028;-84
2021/08/26 17:50:17;;;;;;;2.88;1.30;;;19.40;70.70;;;;;;5093817;28;20464;-81
2021/08/26 17:52:43;;;;;;;2.95;1.27;;;19.40;70.60;;;;;;5075039;28;20122;-80
2021/08/26 17:55:10;;;;;;;2.45;1.20;;;19.30;70.60;;;;;;5090237;28;20536;-81
2021/08/26 17:57:36;;;;;;;3.17;1.35;;;19.30;70.40;;;;;;5111870;28;20032;-80
2021/08/26 18:00:11;;;;;;;2.88;1.30;;;19.30;70.00;;;;;;5075378;28;20063;-82
2021/08/26 18:02:41;;;;;;;3.00;1.27;;;19.30;70.20;;;;;;5084732;28;20115;-82
2021/08/26 18:05:07;;;;;;;3.13;1.20;;;19.30;70.60;;;;;;5111588;28;20022;-82
2021/08/26 18:07:32;;;;;;;3.03;1.38;;;19.20;70.50;;;;;;5101161;28;20536;-81
2021/08/26 18:09:58;;;;;;;3.28;1.23;;;19.10;70.90;;;;;;5090256;28;20024;-82
2021/08/26 18:12:24;;;;;;;4.45;1.00;;;19.20;71.00;;;;;;5086814;28;20028;-81
2021/08/26 18:14:49;;;;;;;2.55;1.15;;;19.20;71.10;;;;;;5084727;28;20028;-81
2021/08/26 18:17:15;;;;;;;3.05;1.20;;;19.10;71.10;;;;;;5080245;28;20052;-82
2021/08/26 18:19:41;;;;;;;2.53;1.10;;;19.00;71.50;;;;;;5085486;28;20464;-81
2021/08/26 18:22:07;;;;;;;3.33;1.35;;;19.00;71.70;;;;;;5080293;28;20462;-82
2021/08/26 18:24:32;;;;;;;4.03;1.40;;;19.00;72.10;;;;;;5073586;28;20036;-85
2021/08/26 18:26:58;;;;;;;1.75;1.20;;;19.00;72.10;;;;;;5082477;28;20035;-86
2021/08/26 18:29:25;;;;;;;2.55;1.30;;;18.90;72.50;;;;;;5077983;28;20036;-84
2021/08/26 18:31:52;;;;;;;2.08;1.10;;;19.00;72.90;;;;;;5080666;28;20031;-84